FKL weather

Venango Regional Airport
Franklin, Pennsylvania, United States

Public forecast

Using degrees Fahrenheit for public forecast. Weather courtesy of forecast.io.

Current aviation weather report (METAR) for Venango Regional Airport

Retrieved 2020/07/06 04:56 UTC (25 minutes ago):

KFKL 060456Z AUTO 05003KT 10SM CLR 21/16 A3003 RMK AO2 SLP158 T02110161 403220144

Aviation forecast (TAF) for Venango Regional Airport

Retrieved 2020-07-06 00:27 UTC (5 hours ago):

TAF KFKL 052323Z 0600/0624 00000KT P6SM SKC TEMPO 0609/0612 2SM BR FM061700 30005KT P6SM SCT060